sensor_id;sensor_type;location;lat;lon;timestamp;P1;durP1;ratioP1;P2;durP2;ratioP2
79487;SDS011;68949;53.176;18.088;2023-09-12T00:00:06;17.60;;;10.50;;
79487;SDS011;68949;53.176;18.088;2023-09-12T00:02:58;15.90;;;10.30;;
79487;SDS011;68949;53.176;18.088;2023-09-12T00:05:25;16.10;;;10.20;;
79487;SDS011;68949;53.176;18.088;2023-09-12T00:07:52;15.60;;;9.90;;
79487;SDS011;68949;53.176;18.088;2023-09-12T00:10:22;16.10;;;10.20;;
79487;SDS011;68949;53.176;18.088;2023-09-12T00:12:48;16.20;;;9.50;;
79487;SDS011;68949;53.176;18.088;2023-09-12T00:15:15;19.60;;;11.30;;
79487;SDS011;68949;53.176;18.088;2023-09-12T00:17:42;16.70;;;10.60;;
79487;SDS011;68949;53.176;18.088;2023-09-12T00:20:08;15.90;;;10.60;;
79487;SDS011;68949;53.176;18.088;2023-09-12T00:22:35;15.60;;;9.70;;
79487;SDS011;68949;53.176;18.088;2023-09-12T00:25:02;15.30;;;10.10;;
79487;SDS011;68949;53.176;18.088;2023-09-12T00:27:29;17.80;;;10.70;;
79487;SDS011;68949;53.176;18.088;2023-09-12T00:29:56;17.70;;;10.80;;
79487;SDS011;68949;53.176;18.088;2023-09-12T00:32:22;17.30;;;10.70;;
79487;SDS011;68949;53.176;18.088;2023-09-12T00:34:49;16.20;;;11.80;;
79487;SDS011;68949;53.176;18.088;2023-09-12T00:37:16;15.80;;;10.70;;
79487;SDS011;68949;53.176;18.088;2023-09-12T00:39:42;19.00;;;10.70;;
79487;SDS011;68949;53.176;18.088;2023-09-12T00:42:09;16.40;;;10.30;;
79487;SDS011;68949;53.176;18.088;2023-09-12T00:44:36;15.90;;;11.50;;
79487;SDS011;68949;53.176;18.088;2023-09-12T00:47:03;17.50;;;10.80;;
79487;SDS011;68949;53.176;18.088;2023-09-12T00:49:31;17.90;;;11.90;;
79487;SDS011;68949;53.176;18.088;2023-09-12T00:51:59;16.70;;;11.10;;
79487;SDS011;68949;53.176;18.088;2023-09-12T00:54:28;18.10;;;11.60;;
79487;SDS011;68949;53.176;18.088;2023-09-12T00:56:55;18.60;;;11.80;;
79487;SDS011;68949;53.176;18.088;2023-09-12T00:59:22;17.30;;;11.10;;
79487;SDS011;68949;53.176;18.088;2023-09-12T01:01:50;15.60;;;10.90;;
79487;SDS011;68949;53.176;18.088;2023-09-12T01:04:17;19.30;;;12.20;;
79487;SDS011;68949;53.176;18.088;2023-09-12T01:06:45;18.10;;;11.20;;
79487;SDS011;68949;53.176;18.088;2023-09-12T01:09:12;17.10;;;11.50;;
79487;SDS011;68949;53.176;18.088;2023-09-12T01:11:39;21.00;;;12.00;;
79487;SDS011;68949;53.176;18.088;2023-09-12T01:14:06;19.70;;;6.20;;
79487;SDS011;68949;53.176;18.088;2023-09-12T01:16:33;19.30;;;11.30;;
79487;SDS011;68949;53.176;18.088;2023-09-12T01:18:59;16.90;;;11.70;;
79487;SDS011;68949;53.176;18.088;2023-09-12T01:21:41;17.90;;;12.60;;
79487;SDS011;68949;53.176;18.088;2023-09-12T01:27:34;19.60;;;11.90;;
79487;SDS011;68949;53.176;18.088;2023-09-12T01:30:08;19.40;;;12.90;;
79487;SDS011;68949;53.176;18.088;2023-09-12T01:32:37;21.90;;;13.70;;
79487;SDS011;68949;53.176;18.088;2023-09-12T01:35:05;19.10;;;13.10;;
79487;SDS011;68949;53.176;18.088;2023-09-12T01:37:33;19.60;;;13.20;;
79487;SDS011;68949;53.176;18.088;2023-09-12T01:40:01;19.60;;;12.50;;
79487;SDS011;68949;53.176;18.088;2023-09-12T01:42:33;21.50;;;13.90;;
79487;SDS011;68949;53.176;18.088;2023-09-12T01:45:04;22.80;;;13.90;;
79487;SDS011;68949;53.176;18.088;2023-09-12T01:47:34;19.90;;;13.90;;
79487;SDS011;68949;53.176;18.088;2023-09-12T01:50:01;22.10;;;13.40;;
79487;SDS011;68949;53.176;18.088;2023-09-12T01:52:29;22.50;;;13.20;;
79487;SDS011;68949;53.176;18.088;2023-09-12T01:54:56;19.80;;;14.50;;
79487;SDS011;68949;53.176;18.088;2023-09-12T01:57:24;19.90;;;13.50;;
79487;SDS011;68949;53.176;18.088;2023-09-12T01:59:51;21.30;;;13.40;;
79487;SDS011;68949;53.176;18.088;2023-09-12T02:02:18;20.30;;;13.80;;
79487;SDS011;68949;53.176;18.088;2023-09-12T02:05:02;21.70;;;14.00;;
79487;SDS011;68949;53.176;18.088;2023-09-12T02:07:34;20.90;;;13.90;;
79487;SDS011;68949;53.176;18.088;2023-09-12T02:10:04;18.60;;;13.80;;
79487;SDS011;68949;53.176;18.088;2023-09-12T02:12:31;19.50;;;13.40;;
79487;SDS011;68949;53.176;18.088;2023-09-12T02:14:58;19.20;;;13.00;;
79487;SDS011;68949;53.176;18.088;2023-09-12T02:17:25;17.60;;;12.50;;
79487;SDS011;68949;53.176;18.088;2023-09-12T02:19:51;21.20;;;13.30;;
79487;SDS011;68949;53.176;18.088;2023-09-12T02:22:18;22.00;;;14.60;;
79487;SDS011;68949;53.176;18.088;2023-09-12T02:24:46;19.60;;;14.10;;
79487;SDS011;68949;53.176;18.088;2023-09-12T02:27:12;21.60;;;14.00;;
79487;SDS011;68949;53.176;18.088;2023-09-12T02:29:41;20.40;;;14.40;;
79487;SDS011;68949;53.176;18.088;2023-09-12T02:32:09;21.90;;;13.70;;
79487;SDS011;68949;53.176;18.088;2023-09-12T02:34:36;19.30;;;13.50;;
79487;SDS011;68949;53.176;18.088;2023-09-12T02:37:02;20.90;;;15.30;;
79487;SDS011;68949;53.176;18.088;2023-09-12T02:39:29;21.00;;;14.70;;
79487;SDS011;68949;53.176;18.088;2023-09-12T02:41:56;23.10;;;15.30;;
79487;SDS011;68949;53.176;18.088;2023-09-12T02:44:22;22.90;;;14.80;;
79487;SDS011;68949;53.176;18.088;2023-09-12T02:46:50;22.70;;;15.80;;
79487;SDS011;68949;53.176;18.088;2023-09-12T02:49:17;19.60;;;13.80;;
79487;SDS011;68949;53.176;18.088;2023-09-12T02:51:45;20.00;;;12.50;;
79487;SDS011;68949;53.176;18.088;2023-09-12T02:54:12;19.40;;;12.80;;
79487;SDS011;68949;53.176;18.088;2023-09-12T02:56:39;19.80;;;11.30;;
79487;SDS011;68949;53.176;18.088;2023-09-12T02:59:06;20.70;;;14.20;;
79487;SDS011;68949;53.176;18.088;2023-09-12T03:01:32;21.20;;;14.30;;
79487;SDS011;68949;53.176;18.088;2023-09-12T03:03:59;21.80;;;14.50;;
79487;SDS011;68949;53.176;18.088;2023-09-12T03:06:26;21.70;;;13.40;;
79487;SDS011;68949;53.176;18.088;2023-09-12T03:08:55;21.10;;;14.70;;
79487;SDS011;68949;53.176;18.088;2023-09-12T03:11:21;22.70;;;14.40;;
79487;SDS011;68949;53.176;18.088;2023-09-12T03:13:48;21.20;;;14.10;;
79487;SDS011;68949;53.176;18.088;2023-09-12T03:16:15;21.40;;;13.80;;
79487;SDS011;68949;53.176;18.088;2023-09-12T03:18:41;22.50;;;14.40;;
79487;SDS011;68949;53.176;18.088;2023-09-12T03:21:08;21.20;;;14.80;;
79487;SDS011;68949;53.176;18.088;2023-09-12T03:23:35;20.80;;;14.50;;
79487;SDS011;68949;53.176;18.088;2023-09-12T03:26:06;24.10;;;14.40;;
79487;SDS011;68949;53.176;18.088;2023-09-12T03:28:33;21.00;;;14.50;;
79487;SDS011;68949;53.176;18.088;2023-09-12T03:31:06;21.00;;;13.40;;
79487;SDS011;68949;53.176;18.088;2023-09-12T03:33:34;23.90;;;14.20;;
79487;SDS011;68949;53.176;18.088;2023-09-12T03:36:01;20.60;;;14.10;;
79487;SDS011;68949;53.176;18.088;2023-09-12T03:38:27;21.70;;;14.20;;
79487;SDS011;68949;53.176;18.088;2023-09-12T03:40:54;23.50;;;14.30;;
79487;SDS011;68949;53.176;18.088;2023-09-12T03:43:21;21.80;;;15.10;;
79487;SDS011;68949;53.176;18.088;2023-09-12T03:45:49;22.90;;;14.20;;
79487;SDS011;68949;53.176;18.088;2023-09-12T03:48:16;22.80;;;15.10;;
79487;SDS011;68949;53.176;18.088;2023-09-12T03:50:43;23.50;;;14.70;;
79487;SDS011;68949;53.176;18.088;2023-09-12T03:53:13;20.00;;;14.20;;
79487;SDS011;68949;53.176;18.088;2023-09-12T03:55:42;21.00;;;14.60;;
79487;SDS011;68949;53.176;18.088;2023-09-12T03:58:09;24.30;;;15.80;;
79487;SDS011;68949;53.176;18.088;2023-09-12T04:00:36;20.70;;;15.20;;
79487;SDS011;68949;53.176;18.088;2023-09-12T04:03:02;21.40;;;15.00;;
79487;SDS011;68949;53.176;18.088;2023-09-12T04:05:30;22.60;;;14.90;;
79487;SDS011;68949;53.176;18.088;2023-09-12T04:07:57;24.10;;;14.30;;
79487;SDS011;68949;53.176;18.088;2023-09-12T04:10:24;23.60;;;14.40;;
79487;SDS011;68949;53.176;18.088;2023-09-12T04:12:50;24.40;;;15.00;;
79487;SDS011;68949;53.176;18.088;2023-09-12T04:15:17;26.30;;;15.70;;
79487;SDS011;68949;53.176;18.088;2023-09-12T04:17:44;24.40;;;16.50;;
79487;SDS011;68949;53.176;18.088;2023-09-12T04:20:11;24.20;;;15.30;;
79487;SDS011;68949;53.176;18.088;2023-09-12T04:22:43;21.00;;;14.30;;
79487;SDS011;68949;53.176;18.088;2023-09-12T04:25:11;21.10;;;15.30;;
79487;SDS011;68949;53.176;18.088;2023-09-12T04:27:38;22.60;;;15.30;;
79487;SDS011;68949;53.176;18.088;2023-09-12T04:30:05;25.80;;;14.30;;
79487;SDS011;68949;53.176;18.088;2023-09-12T04:32:32;22.20;;;15.00;;
79487;SDS011;68949;53.176;18.088;2023-09-12T04:34:59;23.00;;;14.50;;
79487;SDS011;68949;53.176;18.088;2023-09-12T04:37:26;24.50;;;16.00;;
79487;SDS011;68949;53.176;18.088;2023-09-12T04:39:53;25.80;;;15.70;;
79487;SDS011;68949;53.176;18.088;2023-09-12T04:42:21;24.10;;;15.80;;
79487;SDS011;68949;53.176;18.088;2023-09-12T04:44:48;21.20;;;14.60;;
79487;SDS011;68949;53.176;18.088;2023-09-12T04:47:15;22.80;;;15.20;;
79487;SDS011;68949;53.176;18.088;2023-09-12T04:49:43;22.10;;;15.40;;
79487;SDS011;68949;53.176;18.088;2023-09-12T04:52:10;20.10;;;14.10;;
79487;SDS011;68949;53.176;18.088;2023-09-12T04:54:37;24.60;;;14.80;;
79487;SDS011;68949;53.176;18.088;2023-09-12T04:57:04;24.90;;;15.60;;
79487;SDS011;68949;53.176;18.088;2023-09-12T04:59:31;22.00;;;15.60;;
79487;SDS011;68949;53.176;18.088;2023-09-12T05:01:57;22.10;;;15.90;;
79487;SDS011;68949;53.176;18.088;2023-09-12T05:04:25;22.60;;;15.30;;
79487;SDS011;68949;53.176;18.088;2023-09-12T05:06:51;21.40;;;14.20;;
79487;SDS011;68949;53.176;18.088;2023-09-12T05:09:18;21.20;;;15.40;;
79487;SDS011;68949;53.176;18.088;2023-09-12T05:11:45;23.60;;;16.30;;
79487;SDS011;68949;53.176;18.088;2023-09-12T05:14:11;24.00;;;16.00;;
79487;SDS011;68949;53.176;18.088;2023-09-12T05:16:38;23.50;;;16.20;;
79487;SDS011;68949;53.176;18.088;2023-09-12T05:19:05;25.10;;;15.80;;
79487;SDS011;68949;53.176;18.088;2023-09-12T05:21:32;25.30;;;16.20;;
79487;SDS011;68949;53.176;18.088;2023-09-12T05:23:59;26.60;;;16.20;;
79487;SDS011;68949;53.176;18.088;2023-09-12T05:26:26;24.90;;;15.80;;
79487;SDS011;68949;53.176;18.088;2023-09-12T05:28:53;26.10;;;17.40;;
79487;SDS011;68949;53.176;18.088;2023-09-12T05:31:19;24.90;;;16.10;;
79487;SDS011;68949;53.176;18.088;2023-09-12T05:33:46;22.70;;;16.00;;
79487;SDS011;68949;53.176;18.088;2023-09-12T05:36:13;25.30;;;15.80;;
79487;SDS011;68949;53.176;18.088;2023-09-12T05:38:40;22.50;;;16.70;;
79487;SDS011;68949;53.176;18.088;2023-09-12T05:41:06;24.30;;;17.00;;
79487;SDS011;68949;53.176;18.088;2023-09-12T05:43:33;25.00;;;17.40;;
79487;SDS011;68949;53.176;18.088;2023-09-12T05:46:00;25.30;;;18.20;;
79487;SDS011;68949;53.176;18.088;2023-09-12T05:48:26;26.20;;;18.20;;
79487;SDS011;68949;53.176;18.088;2023-09-12T05:50:53;27.80;;;19.80;;
79487;SDS011;68949;53.176;18.088;2023-09-12T05:53:20;27.20;;;19.50;;
79487;SDS011;68949;53.176;18.088;2023-09-12T05:55:46;32.30;;;20.70;;
79487;SDS011;68949;53.176;18.088;2023-09-12T05:58:13;28.80;;;20.30;;
79487;SDS011;68949;53.176;18.088;2023-09-12T06:00:40;31.60;;;21.60;;
79487;SDS011;68949;53.176;18.088;2023-09-12T06:03:06;33.00;;;20.70;;
79487;SDS011;68949;53.176;18.088;2023-09-12T06:05:33;29.30;;;20.60;;
79487;SDS011;68949;53.176;18.088;2023-09-12T06:08:00;36.10;;;22.30;;
79487;SDS011;68949;53.176;18.088;2023-09-12T06:10:26;40.50;;;21.50;;
79487;SDS011;68949;53.176;18.088;2023-09-12T06:12:53;38.70;;;21.50;;
79487;SDS011;68949;53.176;18.088;2023-09-12T06:15:20;37.00;;;21.30;;
79487;SDS011;68949;53.176;18.088;2023-09-12T06:17:46;40.70;;;21.60;;
79487;SDS011;68949;53.176;18.088;2023-09-12T06:20:13;34.30;;;21.10;;
79487;SDS011;68949;53.176;18.088;2023-09-12T06:22:40;31.90;;;20.60;;
79487;SDS011;68949;53.176;18.088;2023-09-12T06:25:07;29.90;;;20.40;;
79487;SDS011;68949;53.176;18.088;2023-09-12T06:27:33;32.80;;;23.00;;
79487;SDS011;68949;53.176;18.088;2023-09-12T06:30:00;33.30;;;23.00;;
79487;SDS011;68949;53.176;18.088;2023-09-12T06:32:28;39.80;;;23.80;;
79487;SDS011;68949;53.176;18.088;2023-09-12T06:34:54;29.60;;;21.10;;
79487;SDS011;68949;53.176;18.088;2023-09-12T06:37:21;31.70;;;21.10;;
79487;SDS011;68949;53.176;18.088;2023-09-12T06:39:51;30.40;;;19.90;;
79487;SDS011;68949;53.176;18.088;2023-09-12T06:42:18;28.60;;;20.30;;
79487;SDS011;68949;53.176;18.088;2023-09-12T06:44:45;30.40;;;20.60;;
79487;SDS011;68949;53.176;18.088;2023-09-12T06:47:12;27.90;;;17.70;;
79487;SDS011;68949;53.176;18.088;2023-09-12T06:49:39;24.40;;;16.60;;
79487;SDS011;68949;53.176;18.088;2023-09-12T06:52:06;27.70;;;19.40;;
79487;SDS011;68949;53.176;18.088;2023-09-12T06:54:33;24.40;;;17.00;;
79487;SDS011;68949;53.176;18.088;2023-09-12T06:57:00;27.00;;;17.30;;
79487;SDS011;68949;53.176;18.088;2023-09-12T06:59:26;25.20;;;16.40;;
79487;SDS011;68949;53.176;18.088;2023-09-12T07:01:53;28.50;;;15.50;;
79487;SDS011;68949;53.176;18.088;2023-09-12T07:04:20;30.20;;;16.50;;
79487;SDS011;68949;53.176;18.088;2023-09-12T07:06:46;32.00;;;17.70;;
79487;SDS011;68949;53.176;18.088;2023-09-12T07:09:13;30.40;;;17.80;;
79487;SDS011;68949;53.176;18.088;2023-09-12T07:11:41;28.00;;;17.50;;
79487;SDS011;68949;53.176;18.088;2023-09-12T07:14:09;28.10;;;17.80;;
79487;SDS011;68949;53.176;18.088;2023-09-12T07:16:36;25.50;;;17.20;;
79487;SDS011;68949;53.176;18.088;2023-09-12T07:19:03;20.10;;;15.00;;
79487;SDS011;68949;53.176;18.088;2023-09-12T07:21:31;21.20;;;13.80;;
79487;SDS011;68949;53.176;18.088;2023-09-12T07:23:58;20.90;;;14.60;;
79487;SDS011;68949;53.176;18.088;2023-09-12T07:26:25;22.70;;;14.90;;
79487;SDS011;68949;53.176;18.088;2023-09-12T07:28:51;22.90;;;13.30;;
79487;SDS011;68949;53.176;18.088;2023-09-12T07:31:18;19.90;;;13.20;;
79487;SDS011;68949;53.176;18.088;2023-09-12T07:33:45;18.20;;;13.60;;
79487;SDS011;68949;53.176;18.088;2023-09-12T07:36:11;25.60;;;13.40;;
79487;SDS011;68949;53.176;18.088;2023-09-12T07:38:38;19.80;;;14.60;;
79487;SDS011;68949;53.176;18.088;2023-09-12T07:41:05;19.60;;;14.80;;
79487;SDS011;68949;53.176;18.088;2023-09-12T07:43:31;23.60;;;15.20;;
79487;SDS011;68949;53.176;18.088;2023-09-12T07:45:58;20.20;;;13.60;;
79487;SDS011;68949;53.176;18.088;2023-09-12T07:48:25;18.40;;;13.50;;
79487;SDS011;68949;53.176;18.088;2023-09-12T07:50:52;19.80;;;13.20;;
79487;SDS011;68949;53.176;18.088;2023-09-12T07:53:18;17.60;;;13.00;;
79487;SDS011;68949;53.176;18.088;2023-09-12T07:55:45;17.70;;;13.60;;
79487;SDS011;68949;53.176;18.088;2023-09-12T07:58:16;15.30;;;11.80;;
79487;SDS011;68949;53.176;18.088;2023-09-12T08:00:47;16.90;;;12.00;;
79487;SDS011;68949;53.176;18.088;2023-09-12T08:03:14;14.50;;;10.80;;
79487;SDS011;68949;53.176;18.088;2023-09-12T08:05:44;15.10;;;11.10;;
79487;SDS011;68949;53.176;18.088;2023-09-12T08:08:10;14.70;;;10.40;;
79487;SDS011;68949;53.176;18.088;2023-09-12T08:10:37;14.60;;;10.80;;
79487;SDS011;68949;53.176;18.088;2023-09-12T08:13:04;16.60;;;11.30;;
79487;SDS011;68949;53.176;18.088;2023-09-12T08:15:30;16.10;;;10.30;;
79487;SDS011;68949;53.176;18.088;2023-09-12T08:17:57;13.80;;;10.20;;
79487;SDS011;68949;53.176;18.088;2023-09-12T08:20:24;13.10;;;9.40;;
79487;SDS011;68949;53.176;18.088;2023-09-12T08:22:50;13.70;;;9.90;;
79487;SDS011;68949;53.176;18.088;2023-09-12T08:25:17;13.30;;;8.70;;
79487;SDS011;68949;53.176;18.088;2023-09-12T08:27:44;12.40;;;8.90;;
79487;SDS011;68949;53.176;18.088;2023-09-12T08:30:12;13.90;;;10.00;;
79487;SDS011;68949;53.176;18.088;2023-09-12T08:32:40;14.80;;;10.00;;
79487;SDS011;68949;53.176;18.088;2023-09-12T08:35:11;11.80;;;8.00;;
79487;SDS011;68949;53.176;18.088;2023-09-12T08:37:40;15.20;;;8.90;;
79487;SDS011;68949;53.176;18.088;2023-09-12T08:40:09;12.10;;;8.50;;
79487;SDS011;68949;53.176;18.088;2023-09-12T08:42:40;13.10;;;8.60;;
79487;SDS011;68949;53.176;18.088;2023-09-12T08:45:14;15.10;;;8.30;;
79487;SDS011;68949;53.176;18.088;2023-09-12T08:47:45;13.10;;;8.20;;
79487;SDS011;68949;53.176;18.088;2023-09-12T08:50:14;14.70;;;9.20;;
79487;SDS011;68949;53.176;18.088;2023-09-12T08:52:46;13.40;;;9.10;;
79487;SDS011;68949;53.176;18.088;2023-09-12T08:55:13;13.30;;;8.60;;
79487;SDS011;68949;53.176;18.088;2023-09-12T08:57:43;14.70;;;8.60;;
79487;SDS011;68949;53.176;18.088;2023-09-12T09:00:11;11.30;;;7.50;;
79487;SDS011;68949;53.176;18.088;2023-09-12T09:02:42;11.50;;;7.90;;
79487;SDS011;68949;53.176;18.088;2023-09-12T09:05:11;12.70;;;7.70;;
79487;SDS011;68949;53.176;18.088;2023-09-12T09:07:40;12.10;;;7.60;;
79487;SDS011;68949;53.176;18.088;2023-09-12T09:10:14;9.50;;;7.20;;
79487;SDS011;68949;53.176;18.088;2023-09-12T09:12:44;12.40;;;7.60;;
79487;SDS011;68949;53.176;18.088;2023-09-12T09:17:51;18.60;;;7.90;;
79487;SDS011;68949;53.176;18.088;2023-09-12T09:20:32;11.60;;;7.70;;
79487;SDS011;68949;53.176;18.088;2023-09-12T09:23:08;13.50;;;7.50;;
79487;SDS011;68949;53.176;18.088;2023-09-12T09:25:40;9.70;;;6.70;;
79487;SDS011;68949;53.176;18.088;2023-09-12T09:28:21;11.60;;;7.50;;
79487;SDS011;68949;53.176;18.088;2023-09-12T09:30:50;11.30;;;7.20;;
79487;SDS011;68949;53.176;18.088;2023-09-12T09:33:18;12.10;;;7.80;;
79487;SDS011;68949;53.176;18.088;2023-09-12T09:35:48;10.30;;;7.50;;
79487;SDS011;68949;53.176;18.088;2023-09-12T09:38:18;9.50;;;7.20;;
79487;SDS011;68949;53.176;18.088;2023-09-12T09:40:46;10.50;;;7.40;;
79487;SDS011;68949;53.176;18.088;2023-09-12T09:43:19;8.70;;;7.30;;
79487;SDS011;68949;53.176;18.088;2023-09-12T09:45:47;10.00;;;7.40;;
79487;SDS011;68949;53.176;18.088;2023-09-12T09:48:21;9.20;;;6.60;;
79487;SDS011;68949;53.176;18.088;2023-09-12T09:50:49;8.30;;;6.10;;
79487;SDS011;68949;53.176;18.088;2023-09-12T09:53:16;10.40;;;6.30;;
79487;SDS011;68949;53.176;18.088;2023-09-12T09:55:42;9.80;;;6.30;;
79487;SDS011;68949;53.176;18.088;2023-09-12T09:58:15;10.10;;;7.70;;
79487;SDS011;68949;53.176;18.088;2023-09-12T10:00:46;13.10;;;7.50;;
79487;SDS011;68949;53.176;18.088;2023-09-12T10:03:18;8.60;;;6.90;;
79487;SDS011;68949;53.176;18.088;2023-09-12T10:05:50;9.60;;;6.70;;
79487;SDS011;68949;53.176;18.088;2023-09-12T10:08:19;8.80;;;6.70;;
79487;SDS011;68949;53.176;18.088;2023-09-12T10:10:47;8.80;;;6.00;;
79487;SDS011;68949;53.176;18.088;2023-09-12T10:13:14;9.20;;;6.90;;
79487;SDS011;68949;53.176;18.088;2023-09-12T10:15:43;8.20;;;6.00;;
79487;SDS011;68949;53.176;18.088;2023-09-12T10:18:14;10.90;;;8.30;;
79487;SDS011;68949;53.176;18.088;2023-09-12T10:20:49;10.00;;;7.50;;
79487;SDS011;68949;53.176;18.088;2023-09-12T10:23:23;12.40;;;7.40;;
79487;SDS011;68949;53.176;18.088;2023-09-12T10:26:04;9.40;;;7.10;;
79487;SDS011;68949;53.176;18.088;2023-09-12T10:28:31;8.90;;;6.90;;
79487;SDS011;68949;53.176;18.088;2023-09-12T10:30:59;10.20;;;7.10;;
79487;SDS011;68949;53.176;18.088;2023-09-12T10:33:28;10.90;;;7.50;;
79487;SDS011;68949;53.176;18.088;2023-09-12T10:35:58;8.70;;;6.70;;
79487;SDS011;68949;53.176;18.088;2023-09-12T10:38:28;10.60;;;6.70;;
79487;SDS011;68949;53.176;18.088;2023-09-12T10:41:00;10.80;;;7.90;;
79487;SDS011;68949;53.176;18.088;2023-09-12T10:43:28;9.50;;;7.40;;
79487;SDS011;68949;53.176;18.088;2023-09-12T10:45:56;9.00;;;7.20;;
79487;SDS011;68949;53.176;18.088;2023-09-12T10:48:25;9.10;;;7.60;;
79487;SDS011;68949;53.176;18.088;2023-09-12T10:50:52;11.30;;;7.60;;
79487;SDS011;68949;53.176;18.088;2023-09-12T10:53:23;11.50;;;6.20;;
79487;SDS011;68949;53.176;18.088;2023-09-12T10:56:01;8.00;;;5.20;;
79487;SDS011;68949;53.176;18.088;2023-09-12T10:59:11;11.70;;;7.30;;
79487;SDS011;68949;53.176;18.088;2023-09-12T11:01:41;11.10;;;6.80;;
79487;SDS011;68949;53.176;18.088;2023-09-12T11:06:50;9.50;;;6.10;;
79487;SDS011;68949;53.176;18.088;2023-09-12T11:09:21;8.50;;;5.50;;
79487;SDS011;68949;53.176;18.088;2023-09-12T11:11:58;8.90;;;6.20;;
79487;SDS011;68949;53.176;18.088;2023-09-12T11:14:28;11.50;;;6.90;;
79487;SDS011;68949;53.176;18.088;2023-09-12T11:19:47;10.20;;;6.90;;
79487;SDS011;68949;53.176;18.088;2023-09-12T11:22:23;10.00;;;6.70;;
79487;SDS011;68949;53.176;18.088;2023-09-12T11:24:51;9.70;;;6.60;;
79487;SDS011;68949;53.176;18.088;2023-09-12T11:27:18;7.60;;;5.20;;
79487;SDS011;68949;53.176;18.088;2023-09-12T11:29:46;9.90;;;7.20;;
79487;SDS011;68949;53.176;18.088;2023-09-12T11:32:26;10.60;;;6.30;;
79487;SDS011;68949;53.176;18.088;2023-09-12T11:34:56;10.10;;;6.90;;
79487;SDS011;68949;53.176;18.088;2023-09-12T11:37:25;10.40;;;7.10;;
79487;SDS011;68949;53.176;18.088;2023-09-12T11:39:53;10.20;;;7.30;;
79487;SDS011;68949;53.176;18.088;2023-09-12T11:42:20;10.10;;;6.40;;
79487;SDS011;68949;53.176;18.088;2023-09-12T11:44:52;8.80;;;7.20;;
79487;SDS011;68949;53.176;18.088;2023-09-12T11:47:19;12.70;;;6.60;;
79487;SDS011;68949;53.176;18.088;2023-09-12T11:49:46;11.40;;;7.50;;
79487;SDS011;68949;53.176;18.088;2023-09-12T11:52:14;9.50;;;6.30;;
79487;SDS011;68949;53.176;18.088;2023-09-12T11:54:46;11.10;;;7.30;;
79487;SDS011;68949;53.176;18.088;2023-09-12T11:57:14;11.80;;;6.80;;
79487;SDS011;68949;53.176;18.088;2023-09-12T11:59:43;10.80;;;7.20;;
79487;SDS011;68949;53.176;18.088;2023-09-12T12:02:15;10.20;;;6.50;;
79487;SDS011;68949;53.176;18.088;2023-09-12T12:04:42;10.60;;;6.80;;
79487;SDS011;68949;53.176;18.088;2023-09-12T12:07:10;9.00;;;6.50;;
79487;SDS011;68949;53.176;18.088;2023-09-12T12:09:37;11.40;;;6.90;;
79487;SDS011;68949;53.176;18.088;2023-09-12T12:12:12;9.50;;;6.30;;
79487;SDS011;68949;53.176;18.088;2023-09-12T12:14:41;7.40;;;5.70;;
79487;SDS011;68949;53.176;18.088;2023-09-12T12:17:09;7.10;;;5.10;;
79487;SDS011;68949;53.176;18.088;2023-09-12T12:19:38;9.20;;;6.80;;
79487;SDS011;68949;53.176;18.088;2023-09-12T12:22:06;11.40;;;6.70;;
79487;SDS011;68949;53.176;18.088;2023-09-12T12:24:45;8.90;;;7.00;;
79487;SDS011;68949;53.176;18.088;2023-09-12T12:27:16;11.20;;;6.20;;
79487;SDS011;68949;53.176;18.088;2023-09-12T12:29:43;10.00;;;5.90;;
79487;SDS011;68949;53.176;18.088;2023-09-12T12:32:10;9.60;;;6.70;;
79487;SDS011;68949;53.176;18.088;2023-09-12T12:34:37;8.10;;;5.90;;
79487;SDS011;68949;53.176;18.088;2023-09-12T12:37:04;9.00;;;6.30;;
79487;SDS011;68949;53.176;18.088;2023-09-12T12:39:31;11.00;;;6.80;;
79487;SDS011;68949;53.176;18.088;2023-09-12T12:41:58;8.80;;;5.70;;
79487;SDS011;68949;53.176;18.088;2023-09-12T12:44:33;10.90;;;6.60;;
79487;SDS011;68949;53.176;18.088;2023-09-12T12:47:04;9.40;;;6.30;;
79487;SDS011;68949;53.176;18.088;2023-09-12T12:49:37;10.40;;;6.40;;
79487;SDS011;68949;53.176;18.088;2023-09-12T12:52:09;10.80;;;6.50;;
79487;SDS011;68949;53.176;18.088;2023-09-12T12:54:36;7.70;;;5.40;;
79487;SDS011;68949;53.176;18.088;2023-09-12T12:57:03;9.50;;;6.40;;
79487;SDS011;68949;53.176;18.088;2023-09-12T12:59:30;9.40;;;6.30;;
79487;SDS011;68949;53.176;18.088;2023-09-12T13:02:01;11.00;;;6.30;;
79487;SDS011;68949;53.176;18.088;2023-09-12T13:04:36;8.20;;;5.60;;
79487;SDS011;68949;53.176;18.088;2023-09-12T13:07:04;7.10;;;5.90;;
79487;SDS011;68949;53.176;18.088;2023-09-12T13:09:32;9.60;;;6.20;;
79487;SDS011;68949;53.176;18.088;2023-09-12T13:11:59;9.60;;;6.80;;
79487;SDS011;68949;53.176;18.088;2023-09-12T13:14:27;8.30;;;6.40;;
79487;SDS011;68949;53.176;18.088;2023-09-12T13:16:58;8.30;;;6.10;;
79487;SDS011;68949;53.176;18.088;2023-09-12T13:19:28;8.50;;;6.30;;
79487;SDS011;68949;53.176;18.088;2023-09-12T13:21:55;8.80;;;7.10;;
79487;SDS011;68949;53.176;18.088;2023-09-12T13:24:22;9.80;;;6.90;;
79487;SDS011;68949;53.176;18.088;2023-09-12T13:26:49;10.20;;;6.90;;
79487;SDS011;68949;53.176;18.088;2023-09-12T13:29:16;9.80;;;7.30;;
79487;SDS011;68949;53.176;18.088;2023-09-12T13:31:43;10.30;;;6.60;;
79487;SDS011;68949;53.176;18.088;2023-09-12T13:34:10;9.60;;;6.00;;
79487;SDS011;68949;53.176;18.088;2023-09-12T13:36:36;9.30;;;5.80;;
79487;SDS011;68949;53.176;18.088;2023-09-12T13:39:03;11.90;;;6.40;;
79487;SDS011;68949;53.176;18.088;2023-09-12T13:41:30;9.70;;;6.10;;
79487;SDS011;68949;53.176;18.088;2023-09-12T13:43:57;9.80;;;6.50;;
79487;SDS011;68949;53.176;18.088;2023-09-12T13:46:23;7.90;;;6.40;;
79487;SDS011;68949;53.176;18.088;2023-09-12T13:48:50;9.10;;;6.20;;
79487;SDS011;68949;53.176;18.088;2023-09-12T13:51:16;7.80;;;5.50;;
79487;SDS011;68949;53.176;18.088;2023-09-12T13:53:43;11.10;;;6.90;;
79487;SDS011;68949;53.176;18.088;2023-09-12T13:56:10;8.80;;;6.50;;
79487;SDS011;68949;53.176;18.088;2023-09-12T13:58:36;9.50;;;5.90;;
79487;SDS011;68949;53.176;18.088;2023-09-12T14:01:03;10.70;;;5.80;;
79487;SDS011;68949;53.176;18.088;2023-09-12T14:03:30;7.60;;;5.40;;
79487;SDS011;68949;53.176;18.088;2023-09-12T14:05:56;7.80;;;5.60;;
79487;SDS011;68949;53.176;18.088;2023-09-12T14:08:23;8.80;;;6.40;;
79487;SDS011;68949;53.176;18.088;2023-09-12T14:10:50;9.50;;;5.50;;
79487;SDS011;68949;53.176;18.088;2023-09-12T14:13:16;9.60;;;6.60;;
79487;SDS011;68949;53.176;18.088;2023-09-12T14:15:43;9.00;;;6.10;;
79487;SDS011;68949;53.176;18.088;2023-09-12T14:18:09;7.40;;;5.20;;
79487;SDS011;68949;53.176;18.088;2023-09-12T14:20:36;8.10;;;6.00;;
79487;SDS011;68949;53.176;18.088;2023-09-12T14:23:03;6.90;;;5.00;;
79487;SDS011;68949;53.176;18.088;2023-09-12T14:25:30;8.10;;;6.20;;
79487;SDS011;68949;53.176;18.088;2023-09-12T14:27:56;9.30;;;6.30;;
79487;SDS011;68949;53.176;18.088;2023-09-12T14:30:26;8.10;;;6.50;;
79487;SDS011;68949;53.176;18.088;2023-09-12T14:33:00;11.30;;;6.70;;